sensor_id;sensor_type;location;lat;lon;timestamp;P1;durP1;ratioP1;P2;durP2;ratioP2
52946;SDS011;45776;40.400;17.260;2022-12-07T00:03:02;12.20;;;4.00;;
52946;SDS011;45776;40.400;17.260;2022-12-07T00:06:38;16.52;;;3.85;;
52946;SDS011;45776;40.400;17.260;2022-12-07T00:10:02;18.98;;;3.97;;
52946;SDS011;45776;40.400;17.260;2022-12-07T00:13:31;17.65;;;3.72;;
52946;SDS011;45776;40.400;17.260;2022-12-07T00:16:55;18.58;;;3.92;;
52946;SDS011;45776;40.400;17.260;2022-12-07T00:20:19;10.27;;;3.83;;
52946;SDS011;45776;40.400;17.260;2022-12-07T00:23:45;21.40;;;3.58;;
52946;SDS011;45776;40.400;17.260;2022-12-07T00:27:09;10.45;;;3.28;;
52946;SDS011;45776;40.400;17.260;2022-12-07T00:30:35;19.13;;;4.60;;
52946;SDS011;45776;40.400;17.260;2022-12-07T00:34:03;15.07;;;3.03;;
52946;SDS011;45776;40.400;17.260;2022-12-07T00:37:27;25.88;;;4.38;;
52946;SDS011;45776;40.400;17.260;2022-12-07T00:40:57;14.18;;;4.40;;
52946;SDS011;45776;40.400;17.260;2022-12-07T00:44:21;15.90;;;3.65;;
52946;SDS011;45776;40.400;17.260;2022-12-07T00:47:45;27.98;;;4.55;;
52946;SDS011;45776;40.400;17.260;2022-12-07T00:51:10;13.25;;;4.28;;
52946;SDS011;45776;40.400;17.260;2022-12-07T00:54:34;27.13;;;4.57;;
52946;SDS011;45776;40.400;17.260;2022-12-07T00:57:58;15.57;;;3.45;;
52946;SDS011;45776;40.400;17.260;2022-12-07T01:01:24;18.30;;;4.28;;
52946;SDS011;45776;40.400;17.260;2022-12-07T01:04:49;19.98;;;4.00;;
52946;SDS011;45776;40.400;17.260;2022-12-07T01:08:18;14.55;;;3.45;;
52946;SDS011;45776;40.400;17.260;2022-12-07T01:11:42;19.70;;;4.95;;
52946;SDS011;45776;40.400;17.260;2022-12-07T01:15:06;20.67;;;4.32;;
52946;SDS011;45776;40.400;17.260;2022-12-07T01:18:33;22.13;;;3.95;;
52946;SDS011;45776;40.400;17.260;2022-12-07T01:21:57;21.60;;;4.32;;
52946;SDS011;45776;40.400;17.260;2022-12-07T01:25:21;14.43;;;3.53;;
52946;SDS011;45776;40.400;17.260;2022-12-07T01:28:46;21.15;;;3.88;;
52946;SDS011;45776;40.400;17.260;2022-12-07T01:32:11;15.50;;;4.55;;
52946;SDS011;45776;40.400;17.260;2022-12-07T01:35:35;18.95;;;3.80;;
52946;SDS011;45776;40.400;17.260;2022-12-07T01:39:00;15.80;;;3.72;;
52946;SDS011;45776;40.400;17.260;2022-12-07T01:42:25;16.75;;;4.45;;
52946;SDS011;45776;40.400;17.260;2022-12-07T01:45:50;15.38;;;4.53;;
52946;SDS011;45776;40.400;17.260;2022-12-07T01:49:19;15.20;;;3.80;;
52946;SDS011;45776;40.400;17.260;2022-12-07T01:52:46;17.85;;;4.50;;
52946;SDS011;45776;40.400;17.260;2022-12-07T01:56:16;18.23;;;4.18;;
52946;SDS011;45776;40.400;17.260;2022-12-07T01:59:42;23.92;;;4.65;;
52946;SDS011;45776;40.400;17.260;2022-12-07T02:06:31;16.30;;;4.20;;
52946;SDS011;45776;40.400;17.260;2022-12-07T02:10:15;17.00;;;4.05;;
52946;SDS011;45776;40.400;17.260;2022-12-07T02:13:40;17.67;;;3.67;;
52946;SDS011;45776;40.400;17.260;2022-12-07T02:24:52;13.57;;;3.17;;
52946;SDS011;45776;40.400;17.260;2022-12-07T02:28:27;9.80;;;3.25;;
52946;SDS011;45776;40.400;17.260;2022-12-07T02:32:31;7.65;;;2.90;;
52946;SDS011;45776;40.400;17.260;2022-12-07T02:36:00;14.82;;;3.38;;
52946;SDS011;45776;40.400;17.260;2022-12-07T02:39:31;15.60;;;3.50;;
52946;SDS011;45776;40.400;17.260;2022-12-07T02:43:08;12.98;;;3.00;;
52946;SDS011;45776;40.400;17.260;2022-12-07T02:46:40;13.48;;;3.17;;
52946;SDS011;45776;40.400;17.260;2022-12-07T02:50:06;11.05;;;3.75;;
52946;SDS011;45776;40.400;17.260;2022-12-07T02:53:41;19.17;;;4.80;;
52946;SDS011;45776;40.400;17.260;2022-12-07T03:01:16;11.80;;;3.30;;
52946;SDS011;45776;40.400;17.260;2022-12-07T03:04:52;15.27;;;3.30;;
52946;SDS011;45776;40.400;17.260;2022-12-07T03:08:46;12.73;;;4.03;;
52946;SDS011;45776;40.400;17.260;2022-12-07T03:12:36;12.95;;;3.30;;
52946;SDS011;45776;40.400;17.260;2022-12-07T03:16:17;17.17;;;3.38;;
52946;SDS011;45776;40.400;17.260;2022-12-07T03:19:44;20.08;;;3.40;;
52946;SDS011;45776;40.400;17.260;2022-12-07T03:23:12;12.38;;;3.03;;
52946;SDS011;45776;40.400;17.260;2022-12-07T03:26:40;10.27;;;3.20;;
52946;SDS011;45776;40.400;17.260;2022-12-07T03:30:29;12.02;;;2.92;;
52946;SDS011;45776;40.400;17.260;2022-12-07T03:34:01;17.02;;;3.15;;
52946;SDS011;45776;40.400;17.260;2022-12-07T03:37:46;10.48;;;3.17;;
52946;SDS011;45776;40.400;17.260;2022-12-07T03:41:17;12.00;;;3.17;;
52946;SDS011;45776;40.400;17.260;2022-12-07T03:44:42;11.02;;;3.63;;
52946;SDS011;45776;40.400;17.260;2022-12-07T03:48:20;10.55;;;3.20;;
52946;SDS011;45776;40.400;17.260;2022-12-07T03:55:34;11.73;;;3.17;;
52946;SDS011;45776;40.400;17.260;2022-12-07T03:58:59;11.32;;;2.67;;
52946;SDS011;45776;40.400;17.260;2022-12-07T04:02:25;8.75;;;2.50;;
52946;SDS011;45776;40.400;17.260;2022-12-07T04:05:50;15.85;;;2.75;;
52946;SDS011;45776;40.400;17.260;2022-12-07T04:09:14;13.48;;;3.20;;
52946;SDS011;45776;40.400;17.260;2022-12-07T04:12:38;15.57;;;3.60;;
52946;SDS011;45776;40.400;17.260;2022-12-07T04:16:22;9.40;;;3.00;;
52946;SDS011;45776;40.400;17.260;2022-12-07T04:19:46;12.90;;;3.63;;
52946;SDS011;45776;40.400;17.260;2022-12-07T04:23:11;15.05;;;3.47;;
52946;SDS011;45776;40.400;17.260;2022-12-07T04:26:36;16.33;;;3.55;;
52946;SDS011;45776;40.400;17.260;2022-12-07T04:30:00;11.93;;;3.00;;
52946;SDS011;45776;40.400;17.260;2022-12-07T04:33:24;11.98;;;3.33;;
52946;SDS011;45776;40.400;17.260;2022-12-07T04:36:48;16.95;;;3.33;;
52946;SDS011;45776;40.400;17.260;2022-12-07T04:40:12;21.63;;;3.20;;
52946;SDS011;45776;40.400;17.260;2022-12-07T04:43:36;12.27;;;3.30;;
52946;SDS011;45776;40.400;17.260;2022-12-07T04:47:00;14.73;;;3.50;;
52946;SDS011;45776;40.400;17.260;2022-12-07T04:50:24;9.85;;;3.42;;
52946;SDS011;45776;40.400;17.260;2022-12-07T04:53:50;13.32;;;3.60;;
52946;SDS011;45776;40.400;17.260;2022-12-07T04:57:14;12.77;;;2.72;;
52946;SDS011;45776;40.400;17.260;2022-12-07T05:00:38;13.68;;;3.35;;
52946;SDS011;45776;40.400;17.260;2022-12-07T05:04:03;22.85;;;3.40;;
52946;SDS011;45776;40.400;17.260;2022-12-07T05:07:27;9.45;;;2.65;;
52946;SDS011;45776;40.400;17.260;2022-12-07T05:10:51;16.30;;;3.45;;
52946;SDS011;45776;40.400;17.260;2022-12-07T05:14:16;21.52;;;4.38;;
52946;SDS011;45776;40.400;17.260;2022-12-07T05:17:41;14.57;;;3.90;;
52946;SDS011;45776;40.400;17.260;2022-12-07T05:21:05;18.92;;;4.93;;
52946;SDS011;45776;40.400;17.260;2022-12-07T05:24:29;16.08;;;4.10;;
52946;SDS011;45776;40.400;17.260;2022-12-07T05:27:54;11.98;;;3.80;;
52946;SDS011;45776;40.400;17.260;2022-12-07T05:31:19;15.63;;;3.67;;
52946;SDS011;45776;40.400;17.260;2022-12-07T05:34:44;15.32;;;4.43;;
52946;SDS011;45776;40.400;17.260;2022-12-07T05:38:08;11.23;;;3.60;;
52946;SDS011;45776;40.400;17.260;2022-12-07T05:41:32;25.77;;;5.05;;
52946;SDS011;45776;40.400;17.260;2022-12-07T05:44:56;12.85;;;3.95;;
52946;SDS011;45776;40.400;17.260;2022-12-07T05:48:21;21.00;;;4.85;;
52946;SDS011;45776;40.400;17.260;2022-12-07T05:51:45;15.43;;;3.92;;
52946;SDS011;45776;40.400;17.260;2022-12-07T05:55:09;18.38;;;4.40;;
52946;SDS011;45776;40.400;17.260;2022-12-07T05:58:33;9.95;;;3.17;;
52946;SDS011;45776;40.400;17.260;2022-12-07T06:01:59;17.40;;;4.50;;
52946;SDS011;45776;40.400;17.260;2022-12-07T06:05:23;17.10;;;4.32;;
52946;SDS011;45776;40.400;17.260;2022-12-07T06:08:47;15.10;;;3.50;;
52946;SDS011;45776;40.400;17.260;2022-12-07T06:12:12;16.23;;;4.45;;
52946;SDS011;45776;40.400;17.260;2022-12-07T06:15:36;23.80;;;7.25;;
52946;SDS011;45776;40.400;17.260;2022-12-07T06:19:00;16.27;;;4.63;;
52946;SDS011;45776;40.400;17.260;2022-12-07T06:22:24;18.30;;;4.90;;
52946;SDS011;45776;40.400;17.260;2022-12-07T06:25:48;15.45;;;4.80;;
52946;SDS011;45776;40.400;17.260;2022-12-07T06:29:12;15.40;;;5.07;;
52946;SDS011;45776;40.400;17.260;2022-12-07T06:32:37;15.23;;;4.15;;
52946;SDS011;45776;40.400;17.260;2022-12-07T06:36:01;17.55;;;4.82;;
52946;SDS011;45776;40.400;17.260;2022-12-07T06:39:25;16.92;;;4.90;;
52946;SDS011;45776;40.400;17.260;2022-12-07T06:42:50;22.60;;;5.32;;
52946;SDS011;45776;40.400;17.260;2022-12-07T06:46:15;16.10;;;5.15;;
52946;SDS011;45776;40.400;17.260;2022-12-07T06:49:41;16.98;;;4.55;;
52946;SDS011;45776;40.400;17.260;2022-12-07T06:53:05;11.35;;;4.60;;
52946;SDS011;45776;40.400;17.260;2022-12-07T06:56:29;22.95;;;5.07;;
52946;SDS011;45776;40.400;17.260;2022-12-07T06:59:53;24.80;;;5.53;;
52946;SDS011;45776;40.400;17.260;2022-12-07T07:03:18;15.23;;;4.38;;
52946;SDS011;45776;40.400;17.260;2022-12-07T07:06:42;20.20;;;4.28;;
52946;SDS011;45776;40.400;17.260;2022-12-07T07:10:06;20.95;;;5.00;;
52946;SDS011;45776;40.400;17.260;2022-12-07T07:13:31;19.30;;;6.53;;
52946;SDS011;45776;40.400;17.260;2022-12-07T07:16:55;26.85;;;7.47;;
52946;SDS011;45776;40.400;17.260;2022-12-07T07:20:19;20.23;;;6.95;;
52946;SDS011;45776;40.400;17.260;2022-12-07T07:23:43;25.08;;;6.75;;
52946;SDS011;45776;40.400;17.260;2022-12-07T07:27:07;22.20;;;7.28;;
52946;SDS011;45776;40.400;17.260;2022-12-07T07:30:31;25.27;;;6.93;;
52946;SDS011;45776;40.400;17.260;2022-12-07T07:33:55;24.40;;;6.38;;
52946;SDS011;45776;40.400;17.260;2022-12-07T07:37:19;19.15;;;6.20;;
52946;SDS011;45776;40.400;17.260;2022-12-07T07:40:44;19.67;;;5.70;;
52946;SDS011;45776;40.400;17.260;2022-12-07T07:44:08;22.50;;;5.03;;
52946;SDS011;45776;40.400;17.260;2022-12-07T07:47:34;19.48;;;4.80;;
52946;SDS011;45776;40.400;17.260;2022-12-07T07:50:58;18.33;;;5.00;;
52946;SDS011;45776;40.400;17.260;2022-12-07T07:54:22;22.88;;;5.18;;
52946;SDS011;45776;40.400;17.260;2022-12-07T07:57:46;16.02;;;4.53;;
52946;SDS011;45776;40.400;17.260;2022-12-07T08:01:10;17.13;;;5.03;;
52946;SDS011;45776;40.400;17.260;2022-12-07T08:04:38;20.50;;;5.95;;
52946;SDS011;45776;40.400;17.260;2022-12-07T08:08:03;17.60;;;4.68;;
52946;SDS011;45776;40.400;17.260;2022-12-07T08:11:29;18.67;;;6.07;;
52946;SDS011;45776;40.400;17.260;2022-12-07T08:14:53;24.45;;;6.07;;
52946;SDS011;45776;40.400;17.260;2022-12-07T08:18:17;22.05;;;5.60;;
52946;SDS011;45776;40.400;17.260;2022-12-07T08:21:41;13.90;;;4.20;;
52946;SDS011;45776;40.400;17.260;2022-12-07T08:25:05;15.20;;;5.28;;
52946;SDS011;45776;40.400;17.260;2022-12-07T08:28:33;13.48;;;5.30;;
52946;SDS011;45776;40.400;17.260;2022-12-07T08:31:57;17.80;;;5.15;;
52946;SDS011;45776;40.400;17.260;2022-12-07T08:35:21;18.08;;;5.35;;
52946;SDS011;45776;40.400;17.260;2022-12-07T08:38:47;24.92;;;5.10;;
52946;SDS011;45776;40.400;17.260;2022-12-07T08:42:11;18.70;;;5.10;;
52946;SDS011;45776;40.400;17.260;2022-12-07T08:45:35;15.95;;;4.80;;
52946;SDS011;45776;40.400;17.260;2022-12-07T08:49:04;17.80;;;5.47;;
52946;SDS011;45776;40.400;17.260;2022-12-07T08:52:32;20.92;;;5.00;;
52946;SDS011;45776;40.400;17.260;2022-12-07T08:55:59;21.42;;;6.47;;
52946;SDS011;45776;40.400;17.260;2022-12-07T08:59:23;17.20;;;4.93;;
52946;SDS011;45776;40.400;17.260;2022-12-07T09:02:47;13.43;;;5.35;;
52946;SDS011;45776;40.400;17.260;2022-12-07T09:06:11;13.45;;;4.82;;
52946;SDS011;45776;40.400;17.260;2022-12-07T09:09:35;15.02;;;4.97;;
52946;SDS011;45776;40.400;17.260;2022-12-07T09:12:59;17.02;;;4.55;;
52946;SDS011;45776;40.400;17.260;2022-12-07T09:16:23;12.55;;;4.40;;
52946;SDS011;45776;40.400;17.260;2022-12-07T09:19:47;20.70;;;5.38;;
52946;SDS011;45776;40.400;17.260;2022-12-07T09:23:11;15.07;;;4.63;;
52946;SDS011;45776;40.400;17.260;2022-12-07T09:26:36;13.73;;;4.03;;
52946;SDS011;45776;40.400;17.260;2022-12-07T09:30:00;10.93;;;4.00;;
52946;SDS011;45776;40.400;17.260;2022-12-07T09:33:25;16.15;;;4.05;;
52946;SDS011;45776;40.400;17.260;2022-12-07T09:36:49;14.32;;;3.83;;
52946;SDS011;45776;40.400;17.260;2022-12-07T09:40:13;12.85;;;4.55;;
52946;SDS011;45776;40.400;17.260;2022-12-07T09:43:37;16.13;;;4.60;;
52946;SDS011;45776;40.400;17.260;2022-12-07T09:47:05;10.65;;;4.78;;
52946;SDS011;45776;40.400;17.260;2022-12-07T09:50:29;13.13;;;4.55;;
52946;SDS011;45776;40.400;17.260;2022-12-07T09:53:54;15.55;;;5.07;;
52946;SDS011;45776;40.400;17.260;2022-12-07T09:57:21;17.08;;;4.95;;
52946;SDS011;45776;40.400;17.260;2022-12-07T10:01:08;14.15;;;4.93;;
52946;SDS011;45776;40.400;17.260;2022-12-07T10:04:53;10.15;;;4.30;;
52946;SDS011;45776;40.400;17.260;2022-12-07T10:08:17;18.65;;;4.88;;
52946;SDS011;45776;40.400;17.260;2022-12-07T10:12:03;11.43;;;4.18;;
52946;SDS011;45776;40.400;17.260;2022-12-07T10:23:14;11.68;;;4.43;;
52946;SDS011;45776;40.400;17.260;2022-12-07T10:26:36;18.92;;;4.93;;
52946;SDS011;45776;40.400;17.260;2022-12-07T10:30:01;12.43;;;4.82;;
52946;SDS011;45776;40.400;17.260;2022-12-07T10:40:43;16.30;;;4.55;;
52946;SDS011;45776;40.400;17.260;2022-12-07T10:44:21;12.07;;;5.03;;
52946;SDS011;45776;40.400;17.260;2022-12-07T10:47:47;18.73;;;4.68;;
52946;SDS011;45776;40.400;17.260;2022-12-07T10:51:22;12.02;;;4.25;;
52946;SDS011;45776;40.400;17.260;2022-12-07T11:02:50;17.58;;;5.25;;
52946;SDS011;45776;40.400;17.260;2022-12-07T11:18:06;14.93;;;4.78;;
52946;SDS011;45776;40.400;17.260;2022-12-07T11:25:32;10.50;;;3.58;;
52946;SDS011;45776;40.400;17.260;2022-12-07T11:36:36;16.67;;;3.95;;
52946;SDS011;45776;40.400;17.260;2022-12-07T11:40:22;12.20;;;4.45;;
52946;SDS011;45776;40.400;17.260;2022-12-07T11:43:54;17.77;;;4.15;;
52946;SDS011;45776;40.400;17.260;2022-12-07T11:47:40;15.52;;;3.72;;
52946;SDS011;45776;40.400;17.260;2022-12-07T11:51:12;12.80;;;4.07;;
52946;SDS011;45776;40.400;17.260;2022-12-07T11:54:47;11.63;;;3.65;;
52946;SDS011;45776;40.400;17.260;2022-12-07T12:05:45;16.33;;;3.83;;
52946;SDS011;45776;40.400;17.260;2022-12-07T12:12:50;15.38;;;4.10;;
52946;SDS011;45776;40.400;17.260;2022-12-07T12:17:10;12.75;;;3.38;;
52946;SDS011;45776;40.400;17.260;2022-12-07T12:20:35;9.93;;;3.33;;
52946;SDS011;45776;40.400;17.260;2022-12-07T12:24:11;12.90;;;3.92;;
52946;SDS011;45776;40.400;17.260;2022-12-07T12:27:48;9.20;;;4.07;;
52946;SDS011;45776;40.400;17.260;2022-12-07T12:31:39;12.13;;;3.30;;
52946;SDS011;45776;40.400;17.260;2022-12-07T12:42:43;13.30;;;3.85;;
52946;SDS011;45776;40.400;17.260;2022-12-07T12:50:18;12.98;;;4.00;;
52946;SDS011;45776;40.400;17.260;2022-12-07T12:54:10;10.73;;;3.42;;
52946;SDS011;45776;40.400;17.260;2022-12-07T13:08:42;9.88;;;3.90;;
52946;SDS011;45776;40.400;17.260;2022-12-07T13:12:13;9.63;;;3.40;;
52946;SDS011;45776;40.400;17.260;2022-12-07T13:15:41;12.82;;;3.97;;
52946;SDS011;45776;40.400;17.260;2022-12-07T13:19:27;14.18;;;3.25;;
52946;SDS011;45776;40.400;17.260;2022-12-07T13:23:12;11.38;;;3.53;;
52946;SDS011;45776;40.400;17.260;2022-12-07T13:26:39;9.98;;;3.63;;
52946;SDS011;45776;40.400;17.260;2022-12-07T13:30:13;13.85;;;3.60;;
52946;SDS011;45776;40.400;17.260;2022-12-07T13:33:46;11.57;;;3.65;;
52946;SDS011;45776;40.400;17.260;2022-12-07T13:44:40;11.20;;;3.20;;
52946;SDS011;45776;40.400;17.260;2022-12-07T13:48:15;10.93;;;3.88;;
52946;SDS011;45776;40.400;17.260;2022-12-07T13:51:44;12.32;;;4.70;;
52946;SDS011;45776;40.400;17.260;2022-12-07T13:55:14;16.35;;;3.97;;
52946;SDS011;45776;40.400;17.260;2022-12-07T13:58:39;14.70;;;4.20;;
52946;SDS011;45776;40.400;17.260;2022-12-07T14:02:16;12.75;;;3.60;;
52946;SDS011;45776;40.400;17.260;2022-12-07T14:05:41;12.48;;;3.40;;
52946;SDS011;45776;40.400;17.260;2022-12-07T14:09:20;11.60;;;3.20;;
52946;SDS011;45776;40.400;17.260;2022-12-07T14:12:49;8.05;;;3.30;;
52946;SDS011;45776;40.400;17.260;2022-12-07T14:16:19;9.20;;;3.47;;
52946;SDS011;45776;40.400;17.260;2022-12-07T14:19:51;11.27;;;3.05;;
52946;SDS011;45776;40.400;17.260;2022-12-07T14:23:24;12.77;;;3.60;;
52946;SDS011;45776;40.400;17.260;2022-12-07T14:26:49;12.50;;;3.50;;
52946;SDS011;45776;40.400;17.260;2022-12-07T14:30:15;11.07;;;3.75;;
52946;SDS011;45776;40.400;17.260;2022-12-07T14:33:42;9.15;;;3.60;;
52946;SDS011;45776;40.400;17.260;2022-12-07T14:37:07;14.35;;;3.90;;
52946;SDS011;45776;40.400;17.260;2022-12-07T14:40:32;15.30;;;3.50;;
52946;SDS011;45776;40.400;17.260;2022-12-07T14:44:15;17.20;;;3.85;;
52946;SDS011;45776;40.400;17.260;2022-12-07T14:47:40;14.55;;;4.55;;
52946;SDS011;45776;40.400;17.260;2022-12-07T14:51:04;15.07;;;4.15;;
52946;SDS011;45776;40.400;17.260;2022-12-07T14:54:30;13.82;;;4.00;;
52946;SDS011;45776;40.400;17.260;2022-12-07T14:57:56;11.95;;;3.65;;
52946;SDS011;45776;40.400;17.260;2022-12-07T15:01:20;8.82;;;3.65;;
52946;SDS011;45776;40.400;17.260;2022-12-07T15:04:44;12.95;;;3.83;;
52946;SDS011;45776;40.400;17.260;2022-12-07T15:08:09;12.32;;;3.90;;
52946;SDS011;45776;40.400;17.260;2022-12-07T15:11:34;13.65;;;3.70;;
52946;SDS011;45776;40.400;17.260;2022-12-07T15:14:58;13.00;;;4.10;;
52946;SDS011;45776;40.400;17.260;2022-12-07T15:18:22;12.35;;;4.32;;
52946;SDS011;45776;40.400;17.260;2022-12-07T15:21:48;22.33;;;4.53;;
52946;SDS011;45776;40.400;17.260;2022-12-07T15:25:13;10.80;;;3.30;;
52946;SDS011;45776;40.400;17.260;2022-12-07T15:28:38;14.88;;;4.20;;
52946;SDS011;45776;40.400;17.260;2022-12-07T15:32:02;16.20;;;3.88;;
52946;SDS011;45776;40.400;17.260;2022-12-07T15:35:26;9.73;;;4.68;;
52946;SDS011;45776;40.400;17.260;2022-12-07T15:38:52;13.50;;;4.32;;
52946;SDS011;45776;40.400;17.260;2022-12-07T15:42:16;14.38;;;4.95;;
52946;SDS011;45776;40.400;17.260;2022-12-07T15:45:59;17.17;;;5.10;;
52946;SDS011;45776;40.400;17.260;2022-12-07T15:49:23;15.27;;;5.18;;
52946;SDS011;45776;40.400;17.260;2022-12-07T15:52:47;14.52;;;7.13;;
52946;SDS011;45776;40.400;17.260;2022-12-07T15:56:11;22.63;;;7.38;;
52946;SDS011;45776;40.400;17.260;2022-12-07T15:59:35;29.08;;;9.65;;
52946;SDS011;45776;40.400;17.260;2022-12-07T16:02:59;20.60;;;10.10;;
52946;SDS011;45776;40.400;17.260;2022-12-07T16:06:24;23.30;;;9.27;;
52946;SDS011;45776;40.400;17.260;2022-12-07T16:09:48;12.20;;;7.68;;
52946;SDS011;45776;40.400;17.260;2022-12-07T16:13:12;16.95;;;7.82;;
52946;SDS011;45776;40.400;17.260;2022-12-07T16:16:36;18.88;;;7.90;;
52946;SDS011;45776;40.400;17.260;2022-12-07T16:20:00;15.18;;;6.20;;
52946;SDS011;45776;40.400;17.260;2022-12-07T16:23:26;17.83;;;8.63;;
52946;SDS011;45776;40.400;17.260;2022-12-07T16:26:50;14.63;;;7.45;;
52946;SDS011;45776;40.400;17.260;2022-12-07T16:30:15;20.98;;;7.03;;
52946;SDS011;45776;40.400;17.260;2022-12-07T16:33:41;18.98;;;7.07;;
52946;SDS011;45776;40.400;17.260;2022-12-07T16:37:05;16.58;;;6.78;;
52946;SDS011;45776;40.400;17.260;2022-12-07T16:40:29;16.80;;;7.40;;
52946;SDS011;45776;40.400;17.260;2022-12-07T16:43:53;28.85;;;10.05;;
52946;SDS011;45776;40.400;17.260;2022-12-07T16:47:17;24.65;;;10.52;;
52946;SDS011;45776;40.400;17.260;2022-12-07T16:50:42;15.73;;;8.80;;
52946;SDS011;45776;40.400;17.260;2022-12-07T16:54:12;21.10;;;9.40;;
52946;SDS011;45776;40.400;17.260;2022-12-07T16:57:36;20.25;;;9.18;;
52946;SDS011;45776;40.400;17.260;2022-12-07T17:01:08;19.52;;;9.57;;
52946;SDS011;45776;40.400;17.260;2022-12-07T17:04:34;26.98;;;10.40;;
52946;SDS011;45776;40.400;17.260;2022-12-07T17:08:01;16.92;;;9.80;;
52946;SDS011;45776;40.400;17.260;2022-12-07T17:11:27;25.30;;;9.55;;
52946;SDS011;45776;40.400;17.260;2022-12-07T17:14:54;23.83;;;9.48;;
52946;SDS011;45776;40.400;17.260;2022-12-07T17:18:21;27.60;;;11.30;;
52946;SDS011;45776;40.400;17.260;2022-12-07T17:21:45;29.50;;;12.63;;
52946;SDS011;45776;40.400;17.260;2022-12-07T17:25:09;30.92;;;14.20;;
52946;SDS011;45776;40.400;17.260;2022-12-07T17:28:38;33.85;;;16.00;;
52946;SDS011;45776;40.400;17.260;2022-12-07T17:32:02;33.53;;;17.30;;
52946;SDS011;45776;40.400;17.260;2022-12-07T17:35:26;39.80;;;21.20;;
52946;SDS011;45776;40.400;17.260;2022-12-07T17:38:51;59.10;;;24.95;;
52946;SDS011;45776;40.400;17.260;2022-12-07T17:42:17;44.15;;;25.75;;
52946;SDS011;45776;40.400;17.260;2022-12-07T17:45:41;49.20;;;26.63;;
52946;SDS011;45776;40.400;17.260;2022-12-07T17:49:05;58.90;;;27.58;;
52946;SDS011;45776;40.400;17.260;2022-12-07T17:52:30;52.95;;;28.40;;
52946;SDS011;45776;40.400;17.260;2022-12-07T17:55:54;53.70;;;28.50;;
52946;SDS011;45776;40.400;17.260;2022-12-07T17:59:19;49.38;;;27.35;;
52946;SDS011;45776;40.400;17.260;2022-12-07T18:02:43;44.22;;;24.80;;
52946;SDS011;45776;40.400;17.260;2022-12-07T18:06:08;47.08;;;22.75;;
52946;SDS011;45776;40.400;17.260;2022-12-07T18:09:32;40.60;;;19.20;;
52946;SDS011;45776;40.400;17.260;2022-12-07T18:12:56;46.33;;;21.20;;
52946;SDS011;45776;40.400;17.260;2022-12-07T18:16:21;42.50;;;21.63;;
52946;SDS011;45776;40.400;17.260;2022-12-07T18:19:45;43.75;;;21.65;;
52946;SDS011;45776;40.400;17.260;2022-12-07T18:23:09;45.08;;;23.33;;
52946;SDS011;45776;40.400;17.260;2022-12-07T18:26:37;46.55;;;22.75;;
52946;SDS011;45776;40.400;17.260;2022-12-07T18:30:01;42.80;;;23.42;;
52946;SDS011;45776;40.400;17.260;2022-12-07T18:33:25;38.08;;;22.25;;
52946;SDS011;45776;40.400;17.260;2022-12-07T18:36:52;45.75;;;21.70;;
52946;SDS011;45776;40.400;17.260;2022-12-07T18:40:16;29.63;;;12.60;;
52946;SDS011;45776;40.400;17.260;2022-12-07T18:43:40;26.98;;;12.65;;
52946;SDS011;45776;40.400;17.260;2022-12-07T18:47:04;32.95;;;14.20;;
52946;SDS011;45776;40.400;17.260;2022-12-07T18:50:29;30.45;;;15.10;;
52946;SDS011;45776;40.400;17.260;2022-12-07T18:53:56;39.95;;;19.20;;
52946;SDS011;45776;40.400;17.260;2022-12-07T18:57:20;37.63;;;19.17;;
52946;SDS011;45776;40.400;17.260;2022-12-07T19:00:44;37.78;;;20.25;;
52946;SDS011;45776;40.400;17.260;2022-12-07T19:04:10;48.15;;;23.13;;
52946;SDS011;45776;40.400;17.260;2022-12-07T19:07:34;39.58;;;22.73;;
52946;SDS011;45776;40.400;17.260;2022-12-07T19:10:58;43.10;;;21.35;;
52946;SDS011;45776;40.400;17.260;2022-12-07T19:14:28;31.98;;;20.13;;
52946;SDS011;45776;40.400;17.260;2022-12-07T19:17:52;42.10;;;20.92;;
52946;SDS011;45776;40.400;17.260;2022-12-07T19:21:17;31.67;;;16.38;;
52946;SDS011;45776;40.400;17.260;2022-12-07T19:24:43;29.98;;;15.68;;
52946;SDS011;45776;40.400;17.260;2022-12-07T19:28:07;31.50;;;15.95;;
52946;SDS011;45776;40.400;17.260;2022-12-07T19:31:31;35.95;;;15.82;;
52946;SDS011;45776;40.400;17.260;2022-12-07T19:34:55;35.60;;;16.50;;
52946;SDS011;45776;40.400;17.260;2022-12-07T19:38:19;31.20;;;15.10;;
52946;SDS011;45776;40.400;17.260;2022-12-07T19:41:43;29.60;;;15.20;;
52946;SDS011;45776;40.400;17.260;2022-12-07T19:45:07;34.83;;;16.23;;
52946;SDS011;45776;40.400;17.260;2022-12-07T19:48:33;36.38;;;16.45;;
52946;SDS011;45776;40.400;17.260;2022-12-07T19:52:00;32.60;;;14.18;;
52946;SDS011;45776;40.400;17.260;2022-12-07T19:55:24;25.25;;;13.43;;
52946;SDS011;45776;40.400;17.260;2022-12-07T19:58:48;25.45;;;13.25;;
52946;SDS011;45776;40.400;17.260;2022-12-07T20:02:13;30.60;;;13.73;;
52946;SDS011;45776;40.400;17.260;2022-12-07T20:05:37;32.65;;;13.00;;
52946;SDS011;45776;40.400;17.260;2022-12-07T20:09:02;26.15;;;11.45;;
52946;SDS011;45776;40.400;17.260;2022-12-07T20:12:26;24.45;;;12.65;;
52946;SDS011;45776;40.400;17.260;2022-12-07T20:15:56;28.63;;;12.20;;
52946;SDS011;45776;40.400;17.260;2022-12-07T20:19:20;29.80;;;12.27;;
52946;SDS011;45776;40.400;17.260;2022-12-07T20:22:44;25.42;;;11.13;;
52946;SDS011;45776;40.400;17.260;2022-12-07T20:26:09;24.02;;;12.20;;
52946;SDS011;45776;40.400;17.260;2022-12-07T20:29:33;26.27;;;11.73;;
52946;SDS011;45776;40.400;17.260;2022-12-07T20:32:57;29.50;;;12.32;;
52946;SDS011;45776;40.400;17.260;2022-12-07T20:36:23;31.85;;;13.43;;
52946;SDS011;45776;40.400;17.260;2022-12-07T20:39:47;29.45;;;14.05;;
52946;SDS011;45776;40.400;17.260;2022-12-07T20:43:12;24.92;;;13.48;;
52946;SDS011;45776;40.400;17.260;2022-12-07T20:46:40;26.10;;;13.73;;
52946;SDS011;45776;40.400;17.260;2022-12-07T20:50:04;33.13;;;14.43;;
52946;SDS011;45776;40.400;17.260;2022-12-07T20:53:30;32.28;;;15.10;;
52946;SDS011;45776;40.400;17.260;2022-12-07T20:56:54;40.30;;;17.20;;
52946;SDS011;45776;40.400;17.260;2022-12-07T21:00:18;38.17;;;17.73;;
52946;SDS011;45776;40.400;17.260;2022-12-07T21:03:42;36.33;;;18.17;;
52946;SDS011;45776;40.400;17.260;2022-12-07T21:07:06;32.97;;;17.05;;
52946;SDS011;45776;40.400;17.260;2022-12-07T21:10:30;31.00;;;16.20;;
52946;SDS011;45776;40.400;17.260;2022-12-07T21:13:55;33.80;;;16.05;;
52946;SDS011;45776;40.400;17.260;2022-12-07T21:17:19;36.38;;;16.00;;
52946;SDS011;45776;40.400;17.260;2022-12-07T21:20:43;34.80;;;15.15;;
52946;SDS011;45776;40.400;17.260;2022-12-07T21:24:07;32.28;;;14.02;;
52946;SDS011;45776;40.400;17.260;2022-12-07T21:27:32;36.70;;;16.27;;
52946;SDS011;45776;40.400;17.260;2022-12-07T21:30:56;38.38;;;17.55;;
52946;SDS011;45776;40.400;17.260;2022-12-07T21:34:20;35.13;;;15.07;;
52946;SDS011;45776;40.400;17.260;2022-12-07T21:37:44;31.33;;;15.27;;
52946;SDS011;45776;40.400;17.260;2022-12-07T21:41:28;27.38;;;13.35;;
52946;SDS011;45776;40.400;17.260;2022-12-07T21:44:52;31.30;;;12.52;;
52946;SDS011;45776;40.400;17.260;2022-12-07T21:48:16;29.83;;;13.65;;
52946;SDS011;45776;40.400;17.260;2022-12-07T21:51:41;32.53;;;14.25;;
52946;SDS011;45776;40.400;17.260;2022-12-07T21:55:05;27.08;;;13.52;;